Time;durP1;ratioP1;P1;durP2;ratioP2;P2;SDS_P1;SDS_P2;PMS_P1;PMS_P2;Temp;Humidity;BMP_temperature;BMP_pressure;BME280_temperature;BME280_humidity;BME280_pressure;Samples;Min_cycle;Max_cycle;Signal;HPM_P1;HPM_P2
2022/05/17 00:02:05;;;;;;;;;;;17.50;97.50;;;;;;4876952;29;20306;-70
2022/05/17 00:04:30;;;;;;;;;;;17.50;97.50;;;;;;4872475;29;19919;-69
2022/05/17 00:06:58;;;;;;;;;;;17.50;97.60;;;;;;4875930;29;19977;-72
2022/05/17 00:09:23;;;;;;;;;;;17.50;97.90;;;;;;4876907;29;19927;-70
2022/05/17 00:11:49;;;;;;;;;;;17.50;97.50;;;;;;4874897;29;20465;-71
2022/05/17 00:14:15;;;;;;;;;;;17.50;97.50;;;;;;4875465;29;19923;-71
2022/05/17 00:16:41;;;;;;;;;;;17.50;97.60;;;;;;4874067;29;20022;-72
2022/05/17 00:19:08;;;;;;;;;;;17.50;97.60;;;;;;4875145;29;19928;-70
2022/05/17 00:21:34;;;;;;;;;;;17.50;97.70;;;;;;4875590;29;19916;-69
2022/05/17 00:24:00;;;;;;;;;;;17.50;97.70;;;;;;4875992;29;19969;-69
2022/05/17 00:26:26;;;;;;;;;;;17.50;97.70;;;;;;4875981;29;19950;-72
2022/05/17 00:28:51;;;;;;;;;;;17.40;97.70;;;;;;4876249;29;19939;-70
2022/05/17 00:31:17;;;;;;;;;;;17.50;97.80;;;;;;4876332;29;19931;-70
2022/05/17 00:33:42;;;;;;;;;;;17.40;97.80;;;;;;4872626;29;19949;-70
2022/05/17 00:36:08;;;;;;;;;;;17.40;97.90;;;;;;4876097;29;19923;-68
2022/05/17 00:38:34;;;;;;;;;;;17.40;97.90;;;;;;4874273;29;19927;-70
2022/05/17 00:41:00;;;;;;;;;;;17.40;98.00;;;;;;4875110;29;19916;-71
2022/05/17 00:43:29;;;;;;;;;;;17.30;98.00;;;;;;4874027;29;20365;-70
2022/05/17 00:45:59;;;;;;;;;;;17.30;98.10;;;;;;4876490;29;20434;-71
2022/05/17 00:48:24;;;;;;;;;;;17.30;98.20;;;;;;4875672;29;19952;-72
2022/05/17 00:50:51;;;;;;;;;;;17.30;98.30;;;;;;4876636;29;20297;-68
2022/05/17 00:53:18;;;;;;;;;;;17.30;98.20;;;;;;4874495;29;20388;-72
2022/05/17 00:55:46;;;;;;;;;;;17.30;98.20;;;;;;4875611;29;20237;-72
2022/05/17 00:58:14;;;;;;;;;;;17.30;98.30;;;;;;4876784;29;19962;-68
2022/05/17 01:00:44;;;;;;;;;;;17.30;98.30;;;;;;4857217;29;19923;-69
2022/05/17 01:03:12;;;;;;;;;;;17.30;98.30;;;;;;4877733;29;19922;-69
2022/05/17 01:05:40;;;;;;;;;;;17.30;98.20;;;;;;4877869;29;19945;-71
2022/05/17 01:08:06;;;;;;;;;;;17.30;98.20;;;;;;4878749;29;19934;-70
2022/05/17 01:10:31;;;;;;;;;;;17.30;98.30;;;;;;4878940;29;19916;-67
2022/05/17 01:15:42;;;;;;;;;;;17.30;98.50;;;;;;4888222;29;20364;-71
2022/05/17 01:18:08;;;;;;;;;;;17.20;98.50;;;;;;4898153;29;19931;-67
2022/05/17 01:20:34;;;;;;;;;;;17.20;98.60;;;;;;4894471;29;19998;-68
2022/05/17 01:23:00;;;;;;;;;;;17.20;98.60;;;;;;4896209;29;20403;-69
2022/05/17 01:25:26;;;;;;;;;;;17.20;98.60;;;;;;4896464;29;20436;-69
2022/05/17 01:27:58;;;;;;;;;;;17.20;98.60;;;;;;4897348;29;20010;-70
2022/05/17 01:30:25;;;;;;;;;;;17.20;98.60;;;;;;4895477;29;19923;-69
2022/05/17 01:32:51;;;;;;;;;;;17.20;98.60;;;;;;4897043;29;19951;-69
2022/05/17 01:35:18;;;;;;;;;;;17.20;98.70;;;;;;4878079;29;19994;-69
2022/05/17 01:37:44;;;;;;;;;;;17.20;98.70;;;;;;4895037;29;19919;-70
2022/05/17 01:40:10;;;;;;;;;;;17.20;98.80;;;;;;4896302;29;19926;-68
2022/05/17 01:42:36;;;;;;;;;;;17.20;98.80;;;;;;4895476;29;19937;-70
2022/05/17 01:45:02;;;;;;;;;;;17.20;98.90;;;;;;4882032;29;19916;-70
2022/05/17 01:47:28;;;;;;;;;;;17.20;98.90;;;;;;4897908;29;19923;-71
2022/05/17 01:49:54;;;;;;;;;;;17.20;98.90;;;;;;4897017;29;19922;-68
2022/05/17 01:52:19;;;;;;;;;;;17.10;99.00;;;;;;4898147;29;19916;-71
2022/05/17 01:54:45;;;;;;;;;;;17.10;99.00;;;;;;4895744;29;19950;-69
2022/05/17 01:57:10;;;;;;;;;;;17.10;99.10;;;;;;4896037;29;19930;-71
2022/05/17 01:59:36;;;;;;;;;;;17.10;99.20;;;;;;4896559;29;19922;-70
2022/05/17 02:02:02;;;;;;;;;;;17.10;99.20;;;;;;4895286;29;19916;-70
2022/05/17 02:04:28;;;;;;;;;;;17.00;99.30;;;;;;4894714;29;19922;-71
2022/05/17 02:06:54;;;;;;;;;;;17.10;99.20;;;;;;4897435;29;19926;-69
2022/05/17 02:09:20;;;;;;;;;;;17.10;99.30;;;;;;4896393;29;19923;-70
2022/05/17 02:11:45;;;;;;;;;;;17.00;99.40;;;;;;4896850;29;20292;-72
2022/05/17 02:14:11;;;;;;;;;;;17.00;99.50;;;;;;4894308;29;19920;-70
2022/05/17 02:16:37;;;;;;;;;;;17.00;99.50;;;;;;4896522;29;19952;-68
2022/05/17 02:19:03;;;;;;;;;;;17.00;99.60;;;;;;4896079;29;19922;-69
2022/05/17 02:21:29;;;;;;;;;;;17.00;99.60;;;;;;4888621;29;20277;-69
2022/05/17 02:23:54;;;;;;;;;;;17.00;99.60;;;;;;4895899;29;19970;-68
2022/05/17 02:26:20;;;;;;;;;;;17.00;99.70;;;;;;4893051;29;19931;-71
2022/05/17 02:28:45;;;;;;;;;;;17.00;99.70;;;;;;4895229;29;19920;-69
2022/05/17 02:31:12;;;;;;;;;;;17.10;99.70;;;;;;4895609;29;19919;-70
2022/05/17 02:33:38;;;;;;;;;;;17.10;99.70;;;;;;4893423;29;19926;-69
2022/05/17 02:36:03;;;;;;;;;;;17.10;99.60;;;;;;4893342;29;20379;-68
2022/05/17 02:38:29;;;;;;;;;;;17.10;99.70;;;;;;4894688;29;20399;-70
2022/05/17 02:40:54;;;;;;;;;;;17.10;99.70;;;;;;4895199;29;20403;-68
2022/05/17 02:43:20;;;;;;;;;;;17.10;99.70;;;;;;4895629;29;19987;-66
2022/05/17 02:45:45;;;;;;;;;;;17.10;99.80;;;;;;4893721;29;19916;-68
2022/05/17 02:48:11;;;;;;;;;;;17.20;99.80;;;;;;4896467;29;20396;-69
2022/05/17 02:50:36;;;;;;;;;;;17.20;99.70;;;;;;4894941;29;19972;-70
2022/05/17 02:53:02;;;;;;;;;;;17.20;99.70;;;;;;4873828;29;19916;-68
2022/05/17 02:55:27;;;;;;;;;;;17.20;99.70;;;;;;4894954;29;20416;-70
2022/05/17 02:57:53;;;;;;;;;;;17.20;99.80;;;;;;4895279;29;19991;-70
2022/05/17 03:00:19;;;;;;;;;;;17.20;99.90;;;;;;4893777;29;20357;-69
2022/05/17 03:02:44;;;;;;;;;;;17.10;99.90;;;;;;4894487;29;19927;-70
2022/05/17 03:05:11;;;;;;;;;;;17.20;99.90;;;;;;4894686;29;20542;-71
2022/05/17 03:07:36;;;;;;;;;;;17.20;99.90;;;;;;4895226;29;20006;-71
2022/05/17 03:10:02;;;;;;;;;;;17.20;99.80;;;;;;4894929;29;20010;-69
2022/05/17 03:12:28;;;;;;;;;;;17.30;99.80;;;;;;4894885;29;19916;-72
2022/05/17 03:14:54;;;;;;;;;;;17.30;99.70;;;;;;4889186;29;19931;-72
2022/05/17 03:17:19;;;;;;;;;;;17.20;99.70;;;;;;4860173;29;19975;-69
2022/05/17 03:19:45;;;;;;;;;;;17.20;99.80;;;;;;4876873;29;19916;-70
2022/05/17 03:22:11;;;;;;;;;;;17.20;99.80;;;;;;4874487;29;19927;-70
2022/05/17 03:24:37;;;;;;;;;;;17.30;99.80;;;;;;4875557;29;19976;-70
2022/05/17 03:27:03;;;;;;;;;;;17.20;99.60;;;;;;4875285;29;20010;-70
2022/05/17 03:29:29;;;;;;;;;;;17.30;99.50;;;;;;4873765;29;20003;-71
2022/05/17 03:31:54;;;;;;;;;;;17.30;99.40;;;;;;4859974;29;20064;-70
2022/05/17 03:34:20;;;;;;;;;;;17.30;99.30;;;;;;4874516;29;19931;-72
2022/05/17 03:36:46;;;;;;;;;;;17.30;99.20;;;;;;4876348;29;19928;-71
2022/05/17 03:39:11;;;;;;;;;;;17.30;99.10;;;;;;4874408;29;19923;-71
2022/05/17 03:41:37;;;;;;;;;;;17.30;99.00;;;;;;4877567;29;19916;-69
2022/05/17 03:44:02;;;;;;;;;;;17.40;98.90;;;;;;4877350;29;19974;-70
2022/05/17 03:46:28;;;;;;;;;;;17.40;98.90;;;;;;4876569;29;19943;-69
2022/05/17 03:48:54;;;;;;;;;;;17.40;98.80;;;;;;4876276;29;20266;-68
2022/05/17 03:51:20;;;;;;;;;;;17.40;98.80;;;;;;4858597;29;20353;-68
2022/05/17 03:53:47;;;;;;;;;;;17.40;98.60;;;;;;4852743;29;19922;-68
2022/05/17 03:56:13;;;;;;;;;;;17.40;98.50;;;;;;4856660;29;20007;-70
2022/05/17 03:58:39;;;;;;;;;;;17.40;98.50;;;;;;4869619;29;20369;-69
2022/05/17 04:01:05;;;;;;;;;;;17.50;98.40;;;;;;4859555;29;20362;-69
2022/05/17 04:03:31;;;;;;;;;;;17.50;98.30;;;;;;4874625;29;19968;-70
2022/05/17 04:05:56;;;;;;;;;;;17.40;98.20;;;;;;4874385;29;19976;-67
2022/05/17 04:08:22;;;;;;;;;;;17.50;98.20;;;;;;4857053;29;19916;-70
2022/05/17 04:10:48;;;;;;;;;;;17.50;98.20;;;;;;4875854;29;19916;-70
2022/05/17 04:13:14;;;;;;;;;;;17.50;98.10;;;;;;4877563;29;20262;-68
2022/05/17 04:15:40;;;;;;;;;;;17.50;98.10;;;;;;4876600;29;19956;-69
2022/05/17 04:18:06;;;;;;;;;;;17.40;98.00;;;;;;4876475;29;19920;-69
2022/05/17 04:20:31;;;;;;;;;;;17.50;97.90;;;;;;4876129;29;20334;-70
2022/05/17 04:22:57;;;;;;;;;;;17.50;97.80;;;;;;4875753;29;20007;-70
2022/05/17 04:25:23;;;;;;;;;;;17.50;98.00;;;;;;4875601;29;19998;-71
2022/05/17 04:27:49;;;;;;;;;;;17.50;97.50;;;;;;4873099;29;20445;-70
2022/05/17 04:30:16;;;;;;;;;;;17.50;97.40;;;;;;4875908;29;20011;-72
2022/05/17 04:32:46;;;;;;;;;;;17.60;97.50;;;;;;4875072;29;19916;-71
2022/05/17 04:35:12;;;;;;;;;;;17.60;97.50;;;;;;4875964;29;19919;-69
2022/05/17 04:37:39;;;;;;;;;;;17.60;97.30;;;;;;4855944;29;19923;-69
2022/05/17 04:40:08;;;;;;;;;;;17.60;97.10;;;;;;4874445;29;20314;-69
2022/05/17 04:42:35;;;;;;;;;;;17.50;96.90;;;;;;4875009;29;19923;-70
2022/05/17 04:45:00;;;;;;;;;;;17.50;96.70;;;;;;4841855;29;20297;-69
2022/05/17 04:47:27;;;;;;;;;;;17.50;96.50;;;;;;4874384;29;19931;-68
2022/05/17 04:49:55;;;;;;;;;;;17.50;96.20;;;;;;4872561;29;20276;-69
2022/05/17 04:52:21;;;;;;;;;;;17.50;96.20;;;;;;4871740;29;20445;-69
2022/05/17 04:54:47;;;;;;;;;;;17.50;95.90;;;;;;4874622;29;20006;-70
2022/05/17 04:57:12;;;;;;;;;;;17.50;95.80;;;;;;4874429;29;20258;-69
2022/05/17 04:59:38;;;;;;;;;;;17.50;95.80;;;;;;4872765;29;19920;-67
2022/05/17 05:02:04;;;;;;;;;;;17.50;96.20;;;;;;4872138;29;19924;-71
2022/05/17 05:04:29;;;;;;;;;;;17.60;96.00;;;;;;4873710;29;19936;-71
2022/05/17 05:06:55;;;;;;;;;;;17.60;95.80;;;;;;4874071;29;19919;-72
2022/05/17 05:09:20;;;;;;;;;;;17.60;95.80;;;;;;4872078;29;20010;-74
2022/05/17 05:11:46;;;;;;;;;;;17.60;95.80;;;;;;4873815;29;19920;-69
2022/05/17 05:14:11;;;;;;;;;;;17.70;95.80;;;;;;4874643;29;20357;-72
2022/05/17 05:16:37;;;;;;;;;;;17.60;95.80;;;;;;4894172;29;19934;-69
2022/05/17 05:19:03;;;;;;;;;;;17.70;95.90;;;;;;4894591;29;19998;-71
2022/05/17 05:21:29;;;;;;;;;;;17.70;95.80;;;;;;4892865;29;20385;-69
2022/05/17 05:23:55;;;;;;;;;;;17.70;96.00;;;;;;4876245;29;20725;-70
2022/05/17 05:26:20;;;;;;;;;;;17.70;95.90;;;;;;4892292;29;19976;-69
2022/05/17 05:28:46;;;;;;;;;;;17.70;95.80;;;;;;4876018;29;19971;-69
2022/05/17 05:31:13;;;;;;;;;;;17.70;95.90;;;;;;4894701;29;19916;-70
2022/05/17 05:33:39;;;;;;;;;;;17.70;95.80;;;;;;4892913;29;19919;-69
2022/05/17 05:36:05;;;;;;;;;;;17.80;95.80;;;;;;4891192;29;19971;-68
2022/05/17 05:38:30;;;;;;;;;;;17.80;95.70;;;;;;4892015;29;19923;-69
2022/05/17 05:40:56;;;;;;;;;;;17.80;95.70;;;;;;4891901;29;20010;-70
2022/05/17 05:43:25;;;;;;;;;;;17.90;95.60;;;;;;4889124;29;19923;-71
2022/05/17 05:45:50;;;;;;;;;;;17.90;95.40;;;;;;4887923;29;19958;-69
2022/05/17 05:48:16;;;;;;;;;;;17.90;95.30;;;;;;4892299;29;20360;-69
2022/05/17 05:50:41;;;;;;;;;;;18.00;95.20;;;;;;4879859;29;20368;-69
2022/05/17 05:53:09;;;;;;;;;;;18.00;94.90;;;;;;4886124;29;20365;-68
2022/05/17 05:55:35;;;;;;;;;;;18.10;94.70;;;;;;4877309;29;19923;-70
2022/05/17 05:58:01;;;;;;;;;;;18.10;94.50;;;;;;4893398;29;19987;-69
2022/05/17 06:00:28;;;;;;;;;;;18.20;94.30;;;;;;4896125;29;19965;-69
2022/05/17 06:02:54;;;;;;;;;;;18.20;94.10;;;;;;4896543;29;19947;-70
2022/05/17 06:05:21;;;;;;;;;;;18.30;94.00;;;;;;4895323;29;19923;-69
2022/05/17 06:07:46;;;;;;;;;;;18.30;93.90;;;;;;4897372;29;20022;-70
2022/05/17 06:10:12;;;;;;;;;;;18.40;93.60;;;;;;4894944;29;20026;-70
2022/05/17 06:15:17;;;;;;;;;;;18.50;92.80;;;;;;5084191;27;20675;-70
2022/05/17 06:17:42;;;;;;;;;;;18.60;93.10;;;;;;5105034;28;19913;-71
2022/05/17 06:20:14;;;;;;;;;;;18.70;93.00;;;;;;5088101;28;19962;-69
2022/05/17 06:22:40;;;;;;;;;;;18.60;93.20;;;;;;5091436;28;19916;-70
2022/05/17 06:25:06;;;;;;;;;;;18.70;93.20;;;;;;5080290;28;20646;-70
2022/05/17 06:27:32;;;;;;;;;;;18.70;93.30;;;;;;5100884;28;19916;-70
2022/05/17 06:29:57;;;;;;;;;;;18.70;93.30;;;;;;5082890;28;19916;-69
2022/05/17 06:32:23;;;;;;;;;;;18.70;93.20;;;;;;5083491;28;19912;-68
2022/05/17 06:34:49;;;;;;;;;;;18.70;93.30;;;;;;5083084;28;19925;-70
2022/05/17 06:37:15;;;;;;;;;;;18.80;93.20;;;;;;5085774;28;19919;-69
2022/05/17 06:39:42;;;;;;;;;;;18.70;93.10;;;;;;5083711;28;19912;-70
2022/05/17 06:42:08;;;;;;;;;;;18.80;93.00;;;;;;5103869;28;19915;-70
2022/05/17 06:44:35;;;;;;;;;;;18.80;93.00;;;;;;5081864;28;19916;-71
2022/05/17 06:47:01;;;;;;;;;;;18.80;93.20;;;;;;5086397;28;19917;-71
2022/05/17 06:49:27;;;;;;;;;;;18.80;93.20;;;;;;5093234;28;20431;-71
2022/05/17 06:51:54;;;;;;;;;;;18.70;93.50;;;;;;5088060;28;19972;-70
2022/05/17 06:54:20;;;;;;;;;;;18.80;94.20;;;;;;5083702;28;19916;-69
2022/05/17 06:56:45;;;;;;;;;;;18.70;94.50;;;;;;5086042;28;19923;-69
2022/05/17 06:59:11;;;;;;;;;;;18.80;94.90;;;;;;5082633;28;19913;-70
2022/05/17 07:01:38;;;;;;;;;;;18.70;95.00;;;;;;5080793;28;19913;-69
2022/05/17 07:04:03;;;;;;;;;;;18.80;95.30;;;;;;5083124;28;19923;-70
2022/05/17 07:06:29;;;;;;;;;;;18.80;95.40;;;;;;5093619;28;19920;-69
2022/05/17 07:08:54;;;;;;;;;;;18.80;95.20;;;;;;5083630;28;19919;-69
2022/05/17 07:14:04;;;;;;;;;;;19.00;95.30;;;;;;5081638;28;19930;-70
2022/05/17 07:16:30;;;;;;;;;;;19.00;95.10;;;;;;5101623;28;20368;-69
2022/05/17 07:18:56;;;;;;;;;;;19.10;95.50;;;;;;5082892;28;19916;-70
2022/05/17 07:21:22;;;;;;;;;;;19.20;95.20;;;;;;5079522;28;19931;-69
2022/05/17 07:23:47;;;;;;;;;;;19.20;95.30;;;;;;5081478;28;19913;-69
2022/05/17 07:26:13;;;;;;;;;;;19.30;95.10;;;;;;5072024;28;19916;-69
2022/05/17 07:28:43;;;;;;;;;;;19.30;94.90;;;;;;5068135;28;19921;-68
2022/05/17 07:31:09;;;;;;;;;;;19.20;95.10;;;;;;5064854;28;19916;-69
2022/05/17 07:33:36;;;;;;;;;;;19.20;95.30;;;;;;5070575;28;19947;-70
2022/05/17 07:36:02;;;;;;;;;;;19.20;95.50;;;;;;5068169;28;20318;-69
2022/05/17 07:38:28;;;;;;;;;;;19.20;95.80;;;;;;5083510;28;19916;-69
2022/05/17 07:40:54;;;;;;;;;;;19.30;95.80;;;;;;5080069;28;20379;-70
2022/05/17 07:43:20;;;;;;;;;;;19.20;96.20;;;;;;5077473;28;19920;-69
2022/05/17 07:45:49;;;;;;;;;;;19.20;96.30;;;;;;5073770;28;19916;-69
2022/05/17 07:48:18;;;;;;;;;;;19.20;96.70;;;;;;5071095;28;19913;-69
2022/05/17 07:50:43;;;;;;;;;;;19.30;97.30;;;;;;5112021;27;21741;-69
2022/05/17 07:53:10;;;;;;;;;;;19.20;97.10;;;;;;5076867;28;19924;-70
2022/05/17 07:55:37;;;;;;;;;;;19.30;97.20;;;;;;5070642;28;19939;-77
2022/05/17 07:58:03;;;;;;;;;;;19.30;96.80;;;;;;5074759;28;22198;-77
2022/05/17 08:00:30;;;;;;;;;;;19.30;96.90;;;;;;5074506;28;20272;-75
2022/05/17 08:02:58;;;;;;;;;;;19.30;96.80;;;;;;5070341;28;20264;-76
2022/05/17 08:05:25;;;;;;;;;;;19.40;96.90;;;;;;5067363;28;19952;-75
2022/05/17 08:07:50;;;;;;;;;;;19.40;96.90;;;;;;5076789;28;19916;-74
2022/05/17 08:10:16;;;;;;;;;;;19.50;97.00;;;;;;5070666;28;19923;-77
2022/05/17 08:12:42;;;;;;;;;;;19.50;96.90;;;;;;5076757;28;19921;-77
2022/05/17 08:15:08;;;;;;;;;;;19.50;96.80;;;;;;5097909;28;19924;-76
2022/05/17 08:17:34;;;;;;;;;;;19.50;96.60;;;;;;5073612;28;19955;-76
2022/05/17 08:19:59;;;;;;;;;;;19.60;96.40;;;;;;5072616;28;19955;-75
2022/05/17 08:22:25;;;;;;;;;;;19.60;96.40;;;;;;5078544;28;20534;-74
2022/05/17 08:27:36;;;;;;;;;;;19.70;96.50;;;;;;5067548;28;19916;-76
2022/05/17 08:30:08;;;;;;;;;;;19.70;96.50;;;;;;5088321;28;19916;-75
2022/05/17 08:35:18;;;;;;;;;;;19.80;95.80;;;;;;5068559;28;19956;-75
2022/05/17 08:37:44;;;;;;;;;;;19.90;95.60;;;;;;5068671;28;20380;-77
2022/05/17 08:40:21;;;;;;;;;;;20.00;95.50;;;;;;5079234;28;20288;-76
2022/05/17 08:43:07;;;;;;;;;;;20.00;94.80;;;;;;5089922;28;19916;-76
2022/05/17 08:45:39;;;;;;;;;;;20.10;95.00;;;;;;5077135;28;19913;-74
2022/05/17 08:48:07;;;;;;;;;;;20.10;95.30;;;;;;5078147;28;20260;-73
2022/05/17 08:50:34;;;;;;;;;;;20.20;94.80;;;;;;5072264;28;20002;-74
2022/05/17 08:53:00;;;;;;;;;;;20.30;95.10;;;;;;5070760;28;19919;-75
2022/05/17 08:55:31;;;;;;;;;;;20.30;94.10;;;;;;5070910;28;19916;-76
2022/05/17 08:58:03;;;;;;;;;;;20.40;94.00;;;;;;5086375;28;20453;-73
2022/05/17 09:00:31;;;;;;;;;;;20.40;93.90;;;;;;5075277;28;19920;-74
2022/05/17 09:03:01;;;;;;;;;;;20.50;93.90;;;;;;5068389;28;19981;-73
2022/05/17 09:05:41;;;;;;;;;;;20.60;94.00;;;;;;5067951;28;19920;-73
2022/05/17 09:08:16;;;;;;;;;;;20.70;93.70;;;;;;5069987;28;19928;-73
2022/05/17 09:10:52;;;;;;;;;;;20.80;93.30;;;;;;5068043;28;19912;-73
2022/05/17 09:13:42;;;;;;;;;;;21.00;92.00;;;;;;5069584;28;19920;-74
2022/05/17 09:16:09;;;;;;;;;;;21.20;91.30;;;;;;5069011;28;19920;-73
2022/05/17 09:18:34;;;;;;;;;;;21.30;90.60;;;;;;5077522;28;20298;-72
2022/05/17 09:21:00;;;;;;;;;;;21.30;89.50;;;;;;5068948;28;19919;-71
2022/05/17 09:23:25;;;;;;;;;;;21.40;90.00;;;;;;5068543;28;20337;-73
2022/05/17 09:25:57;;;;;;;;;;;21.50;90.10;;;;;;5073612;28;19913;-72
2022/05/17 09:28:43;;;;;;;;;;;21.70;90.30;;;;;;5065733;28;19923;-72
2022/05/17 09:31:15;;;;;;;;;;;21.80;90.00;;;;;;5060998;28;19923;-71
2022/05/17 09:33:40;;;;;;;;;;;22.00;88.80;;;;;;5074846;28;19975;-71
2022/05/17 09:36:08;;;;;;;;;;;22.20;87.70;;;;;;5066177;28;19920;-73
2022/05/17 09:38:35;;;;;;;;;;;22.40;86.10;;;;;;5072959;28;19919;-72
2022/05/17 09:41:05;;;;;;;;;;;22.50;85.90;;;;;;5070037;28;19939;-74
2022/05/17 09:43:39;;;;;;;;;;;22.70;84.20;;;;;;5071745;28;19912;-72
2022/05/17 09:46:12;;;;;;;;;;;22.30;86.20;;;;;;5092478;28;19921;-73
2022/05/17 09:54:09;;;;;;;;;;;22.50;90.40;;;;;;5074772;28;20054;-73
2022/05/17 09:56:35;;;;;;;;;;;22.90;90.70;;;;;;5068708;28;19989;-74
2022/05/17 09:59:01;;;;;;;;;;;23.50;90.80;;;;;;5086518;28;20360;-74
2022/05/17 10:01:28;;;;;;;;;;;24.00;90.50;;;;;;5081816;28;20006;-74
2022/05/17 10:04:04;;;;;;;;;;;24.20;89.30;;;;;;5091775;28;19957;-74
2022/05/17 10:06:34;;;;;;;;;;;24.40;89.50;;;;;;5071130;28;19917;-74
2022/05/17 10:09:01;;;;;;;;;;;24.70;89.90;;;;;;5075517;28;19911;-74
2022/05/17 10:11:27;;;;;;;;;;;24.80;89.60;;;;;;5080114;28;19919;-75
2022/05/17 10:14:07;;;;;;;;;;;25.10;90.20;;;;;;5074082;28;19952;-75
2022/05/17 10:16:34;;;;;;;;;;;25.30;89.50;;;;;;5072856;28;20347;-74
2022/05/17 10:19:12;;;;;;;;;;;25.60;89.00;;;;;;5077505;28;19917;-76
2022/05/17 10:21:43;;;;;;;;;;;26.30;87.30;;;;;;5078925;28;19920;-76
2022/05/17 10:24:18;;;;;;;;;;;27.10;84.80;;;;;;5076096;28;19922;-75
2022/05/17 10:26:47;;;;;;;;;;;27.60;85.00;;;;;;5072407;28;19965;-74
2022/05/17 10:29:14;;;;;;;;;;;28.30;84.70;;;;;;5074931;28;19960;-75
2022/05/17 10:31:53;;;;;;;;;;;28.80;84.10;;;;;;5074464;28;19920;-79
2022/05/17 10:34:30;;;;;;;;;;;29.30;84.70;;;;;;5071188;28;19928;-76
2022/05/17 10:37:05;;;;;;;;;;;29.90;81.00;;;;;;5086060;28;19917;-77
2022/05/17 10:39:44;;;;;;;;;;;30.40;82.30;;;;;;5080146;28;19919;-76
2022/05/17 10:42:10;;;;;;;;;;;30.80;81.60;;;;;;5078488;28;19920;-76
2022/05/17 10:44:38;;;;;;;;;;;31.10;80.10;;;;;;5072947;28;20360;-75
2022/05/17 10:47:08;;;;;;;;;;;31.40;81.10;;;;;;5076731;28;19963;-76
2022/05/17 10:49:41;;;;;;;;;;;31.70;82.20;;;;;;5082052;28;20280;-76
2022/05/17 10:52:13;;;;;;;;;;;32.10;82.20;;;;;;5078442;28;20034;-76
2022/05/17 10:54:53;;;;;;;;;;;32.30;80.40;;;;;;5077544;28;19924;-76
2022/05/17 10:57:22;;;;;;;;;;;32.50;80.90;;;;;;5076937;28;19959;-77
2022/05/17 11:00:14;;;;;;;;;;;32.80;80.20;;;;;;5067808;28;19917;-76
2022/05/17 11:02:39;;;;;;;;;;;32.90;77.60;;;;;;5089669;28;19924;-78
2022/05/17 11:05:18;;;;;;;;;;;32.90;77.60;;;;;;5070900;28;20363;-76
2022/05/17 11:07:49;;;;;;;;;;;33.10;75.40;;;;;;5078927;28;19921;-75
2022/05/17 11:10:21;;;;;;;;;;;33.20;77.70;;;;;;5075624;28;19912;-75
2022/05/17 11:12:49;;;;;;;;;;;33.20;75.20;;;;;;5079778;28;19961;-77
2022/05/17 11:15:17;;;;;;;;;;;33.20;71.50;;;;;;5071124;28;19939;-77
2022/05/17 11:17:52;;;;;;;;;;;32.80;71.30;;;;;;5071309;28;19969;-77
2022/05/17 11:20:23;;;;;;;;;;;32.20;74.70;;;;;;5089182;28;19966;-77
2022/05/17 11:22:51;;;;;;;;;;;32.00;76.10;;;;;;5078749;28;19919;-77
2022/05/17 11:25:36;;;;;;;;;;;32.00;73.80;;;;;;5080581;28;20333;-79
2022/05/17 11:28:04;;;;;;;;;;;31.80;71.20;;;;;;5074498;28;19966;-77
2022/05/17 11:30:42;;;;;;;;;;;31.70;75.70;;;;;;5068303;28;19944;-75
2022/05/17 11:33:11;;;;;;;;;;;31.70;74.00;;;;;;5076882;28;20372;-77
2022/05/17 11:35:39;;;;;;;;;;;31.60;73.70;;;;;;5079195;28;19912;-74
2022/05/17 11:38:05;;;;;;;;;;;31.50;69.30;;;;;;5087429;28;19920;-77
2022/05/17 11:40:46;;;;;;;;;;;31.40;73.90;;;;;;5090426;28;19981;-71
2022/05/17 11:45:57;;;;;;;;;;;31.70;63.90;;;;;;5079168;28;19913;-71
2022/05/17 11:48:23;;;;;;;;;;;31.60;72.10;;;;;;5082292;28;19970;-69
2022/05/17 11:50:52;;;;;;;;;;;31.30;71.00;;;;;;5083521;28;19912;-72
2022/05/17 11:53:23;;;;;;;;;;;31.30;72.00;;;;;;5082524;28;19916;-72
2022/05/17 11:56:07;;;;;;;;;;;31.60;73.30;;;;;;5067059;28;19920;-71
2022/05/17 11:58:33;;;;;;;;;;;31.90;71.90;;;;;;5073573;28;19916;-71
2022/05/17 12:00:58;;;;;;;;;;;32.00;67.00;;;;;;5069952;28;19916;-71
2022/05/17 12:03:43;;;;;;;;;;;32.20;70.50;;;;;;5088501;28;20307;-74
2022/05/17 12:06:47;;;;;;;;;;;32.20;68.90;;;;;;5074040;28;20294;-73
2022/05/17 12:09:18;;;;;;;;;;;31.90;69.00;;;;;;5048920;28;19912;-74
2022/05/17 12:12:02;;;;;;;;;;;31.50;65.00;;;;;;5074959;28;19920;-73
2022/05/17 12:14:29;;;;;;;;;;;31.10;69.60;;;;;;5073625;28;19923;-73
2022/05/17 12:16:56;;;;;;;;;;;30.70;67.40;;;;;;5070978;28;19920;-73
2022/05/17 12:19:32;;;;;;;;;;;30.60;68.40;;;;;;5073293;28;19933;-72
2022/05/17 12:22:04;;;;;;;;;;;30.60;66.80;;;;;;5072670;28;20007;-75
2022/05/17 12:24:33;;;;;;;;;;;30.60;68.10;;;;;;5069041;28;19968;-74
2022/05/17 12:26:59;;;;;;;;;;;30.70;67.30;;;;;;5103576;28;19916;-72
2022/05/17 12:32:11;;;;;;;;;;;30.30;66.70;;;;;;5077262;28;19913;-74
2022/05/17 12:34:37;;;;;;;;;;;30.00;65.60;;;;;;5073779;28;20379;-72
2022/05/17 12:37:12;;;;;;;;;;;29.90;66.70;;;;;;5080273;28;19919;-70
2022/05/17 12:45:22;;;;;;;;;;;30.30;67.00;;;;;;5068651;28;19944;-73
2022/05/17 12:47:58;;;;;;;;;;;30.20;66.40;;;;;;5069143;28;19917;-75
2022/05/17 12:50:25;;;;;;;;;;;30.10;66.10;;;;;;5072850;28;19924;-73
2022/05/17 12:52:52;;;;;;;;;;;29.90;66.10;;;;;;5077198;28;19955;-77
2022/05/17 12:55:23;;;;;;;;;;;29.60;64.60;;;;;;5064282;28;19924;-73
2022/05/17 12:57:49;;;;;;;;;;;29.40;66.10;;;;;;5072792;28;19912;-73
2022/05/17 13:00:14;;;;;;;;;;;29.20;65.40;;;;;;5069116;28;20379;-74
2022/05/17 13:02:45;;;;;;;;;;;28.90;66.50;;;;;;5065164;28;20280;-69
2022/05/17 13:05:22;;;;;;;;;;;28.80;67.50;;;;;;5073248;28;19935;-68
2022/05/17 13:07:57;;;;;;;;;;;28.50;67.70;;;;;;5069963;28;19916;-69
2022/05/17 13:10:23;;;;;;;;;;;28.30;67.90;;;;;;5063170;28;19990;-70
2022/05/17 13:12:49;;;;;;;;;;;28.20;68.10;;;;;;5085402;28;19921;-71
2022/05/17 13:15:15;;;;;;;;;;;28.20;68.30;;;;;;5078359;28;19924;-71
2022/05/17 13:17:43;;;;;;;;;;;28.10;68.30;;;;;;5071345;28;19923;-69
2022/05/17 13:20:23;;;;;;;;;;;28.00;67.70;;;;;;5071195;28;19966;-70
2022/05/17 13:22:54;;;;;;;;;;;27.90;68.90;;;;;;5068202;28;19944;-70
2022/05/17 13:25:21;;;;;;;;;;;27.80;68.10;;;;;;5067578;28;19923;-70
2022/05/17 13:27:50;;;;;;;;;;;27.70;67.90;;;;;;5067704;28;20007;-69
2022/05/17 13:30:24;;;;;;;;;;;27.60;68.10;;;;;;5070125;28;20382;-69
2022/05/17 13:32:50;;;;;;;;;;;27.60;68.00;;;;;;5074758;28;19920;-69
2022/05/17 13:35:21;;;;;;;;;;;27.60;69.10;;;;;;5064329;28;19921;-70
2022/05/17 13:37:53;;;;;;;;;;;27.50;68.00;;;;;;5066850;28;19970;-70
2022/05/17 13:40:41;;;;;;;;;;;27.50;68.10;;;;;;5060010;28;20329;-69
2022/05/17 13:43:29;;;;;;;;;;;27.40;67.80;;;;;;5066799;28;19917;-70
2022/05/17 13:49:33;;;;;;;12.40;5.80;;;27.40;67.60;;;;;;5079400;27;20862;-69
2022/05/17 13:52:30;;;;;;;11.52;4.70;;;28.30;61.30;;;;;;5081455;28;20422;-71
2022/05/17 13:55:05;;;;;;;12.88;5.07;;;28.90;59.20;;;;;;5085453;28;22258;-71
2022/05/17 14:04:32;;;;;;;6.10;2.10;;;27.70;63.90;;;;;;5087976;27;20442;-74
2022/05/17 14:07:01;;;;;;;;;;;26.90;68.50;;;;;;5063633;28;20680;-72
2022/05/17 14:12:19;;;;;;;5.85;2.35;;;25.70;70.40;;;;;;5084802;28;20182;-68
2022/05/17 14:14:48;;;;;;;7.30;2.85;;;25.20;72.80;;;;;;5075625;28;20653;-67
2022/05/17 14:44:30;;;;;;;7.43;3.38;;;;;;;;;;5134332;27;20512;-70
2022/05/17 14:47:03;;;;;;;7.00;3.33;;;;;;;;;;5131471;27;20184;-70
2022/05/17 14:49:30;;;;;;;15.68;3.70;;;;;;;;;;5110139;27;20302;-73
2022/05/17 14:51:56;;;;;;;11.00;3.67;;;;;;;;;;5114170;27;20569;-73
2022/05/17 14:54:22;;;;;;;14.65;3.20;;;;;;;;;;5130848;27;20681;-69
2022/05/17 14:56:49;;;;;;;11.35;3.50;;;;;;;;;;5115295;27;20180;-67
2022/05/17 14:59:15;;;;;;;8.52;3.00;;;;;;;;;;5119162;27;20230;-68
2022/05/17 15:01:43;;;;;;;8.05;3.20;;;;;;;;;;5105944;27;20859;-70
2022/05/17 15:04:09;;;;;;;9.80;3.10;;;;;;;;;;5122763;27;20205;-70
2022/05/17 15:06:48;;;;;;;7.13;3.20;;;;;;;;;;5134224;27;20622;-70
2022/05/17 15:09:18;;;;;;;8.27;3.22;;;;;;;;;;5107740;27;20208;-68
2022/05/17 15:11:45;;;;;;;13.93;3.22;;;;;;;;;;5112674;27;20585;-68
2022/05/17 15:14:11;;;;;;;13.82;3.75;;;;;;;;;;5118388;27;20208;-69
2022/05/17 15:16:37;;;;;;;15.45;4.63;;;;;;;;;;5109227;27;20675;-69
2022/05/17 15:19:03;;;;;;;12.23;4.43;;;;;;;;;;5108161;27;20272;-69
2022/05/17 15:21:29;;;;;;;15.27;4.97;;;;;;;;;;5121438;27;20184;-67
2022/05/17 15:23:55;;;;;;;11.52;4.80;;;;;;;;;;5124604;27;20759;-68
2022/05/17 15:26:21;;;;;;;8.85;3.92;;;;;;;;;;5122989;27;20271;-69
2022/05/17 15:28:50;;;;;;;12.57;4.50;;;;;;;;;;5124867;27;20215;-69
2022/05/17 15:31:19;;;;;;;12.10;4.75;;;;;;;;;;5121167;27;20290;-70
2022/05/17 15:33:45;;;;;;;11.18;4.55;;;;;;;;;;5121117;27;20178;-69